1J6 weather

Bob Lee Flight Strip
Deland, Florida, United States

Public forecast

Using degrees Fahrenheit for public forecast. Weather courtesy of forecast.io.

Closest aviation weather report (METAR) to Bob Lee Flight Strip

Closest report is Deland Municipal Sidney H Taylor Field, 2.7 nm (5.1 km) SE. Retrieved 2020/07/16 13:35 UTC (12 minutes ago):

KDED 161335Z AUTO 06004KT 10SM CLR 28/24 A3013 RMK AO2 T02790244

Closest aviation forecast (TAF) to Bob Lee Flight Strip

Closest forecast is Daytona Beach International Airport, 14.1 nm (26.2 km) ENE. Retrieved 2020/07/16 12:47 UTC (1 hour ago):

TAF KDAB 161143Z 1612/1712 VRB02KT P6SM SCT090 SCT200 FM161400 06005KT P6SM SCT030 SCT250 FM161800 07011KT P6SM SCT040 SCT250 FM170300 VRB02KT P6SM FEW020 SCT250